createdAt,value
2022-10-18T00:02:35.498Z,8.13
2022-10-18T00:07:37.351Z,8.27
2022-10-18T00:12:39.787Z,7.75
2022-10-18T00:17:41.621Z,7.95
2022-10-18T00:22:43.452Z,8.10
2022-10-18T00:27:45.255Z,10.10
2022-10-18T00:32:47.147Z,7.97
2022-10-18T00:37:48.965Z,9.93
2022-10-18T00:42:50.766Z,8.02
2022-10-18T00:48:02.987Z,9.40
2022-10-18T00:53:09.140Z,8.77
2022-10-18T00:58:14.022Z,8.55
2022-10-18T01:03:15.841Z,9.38
2022-10-18T01:08:43.938Z,8.32
2022-10-18T01:14:14.141Z,6.45
2022-10-18T01:19:43.837Z,11.57
2022-10-18T01:24:45.565Z,10.00
2022-10-18T01:30:07.685Z,9.52
2022-10-18T01:35:14.295Z,12.02
2022-10-18T01:40:20.744Z,9.60
2022-10-18T01:45:24.353Z,9.02
2022-10-18T01:50:34.673Z,11.20
2022-10-18T02:00:52.364Z,12.18
2022-10-18T02:06:05.673Z,7.57
2022-10-18T02:11:10.897Z,11.00
2022-10-18T02:16:19.599Z,11.85
2022-10-18T02:21:22.858Z,15.27
2022-10-18T02:26:25.119Z,13.05
2022-10-18T02:31:46.906Z,10.00
2022-10-18T02:36:53.742Z,9.85
2022-10-18T02:41:56.898Z,8.23
2022-10-18T02:46:58.790Z,10.48
2022-10-18T02:52:00.680Z,20.23
2022-10-18T02:57:02.484Z,6.85
2022-10-18T03:02:04.574Z,8.85
2022-10-18T03:07:06.406Z,18.02
2022-10-18T03:12:08.461Z,20.65
2022-10-18T03:17:10.296Z,6.50
2022-10-18T03:22:12.222Z,11.77
2022-10-18T03:27:14.010Z,6.30
2022-10-18T03:32:15.867Z,6.55
2022-10-18T03:37:17.618Z,10.68
2022-10-18T03:42:19.365Z,7.95
2022-10-18T03:47:21.192Z,10.30
2022-10-18T03:52:22.933Z,18.27
2022-10-18T03:57:24.724Z,11.95
2022-10-18T04:02:26.591Z,9.73
2022-10-18T04:07:28.374Z,18.55
2022-10-18T04:12:30.392Z,13.45
2022-10-18T04:17:32.672Z,15.45
2022-10-18T04:22:34.869Z,19.60
2022-10-18T04:27:36.945Z,13.07
2022-10-18T04:32:38.960Z,13.85
2022-10-18T04:37:40.758Z,15.00
2022-10-18T04:42:42.558Z,12.80
2022-10-18T04:47:44.299Z,12.63
2022-10-18T04:52:46.172Z,38.28
2022-10-18T04:57:48.011Z,14.32
2022-10-18T05:02:49.851Z,16.30
2022-10-18T05:07:51.662Z,15.23
2022-10-18T05:12:53.393Z,17.65
2022-10-18T05:17:55.197Z,17.70
2022-10-18T05:22:58.054Z,14.93
2022-10-18T05:28:03.423Z,15.35
2022-10-18T05:33:12.847Z,18.13
2022-10-18T05:38:14.635Z,13.75
2022-10-18T05:43:17.915Z,25.77
2022-10-18T05:48:19.785Z,8.57
2022-10-18T05:53:38.111Z,10.98
2022-10-18T05:58:41.902Z,15.52
2022-10-18T06:03:43.816Z,20.38
2022-10-18T06:08:49.014Z,9.18
2022-10-18T06:13:52.270Z,11.25
2022-10-18T06:18:56.289Z,10.23
2022-10-18T06:23:59.361Z,7.95
2022-10-18T06:29:01.326Z,12.50
2022-10-18T06:34:03.392Z,11.68
2022-10-18T06:39:05.321Z,11.38
2022-10-18T06:44:13.923Z,17.33
2022-10-18T06:49:19.129Z,17.52
2022-10-18T06:54:21.474Z,10.15
2022-10-18T06:59:25.240Z,13.40
2022-10-18T07:04:30.668Z,11.35
2022-10-18T07:09:32.497Z,9.98
2022-10-18T07:14:34.369Z,9.20
2022-10-18T07:19:36.249Z,9.02
2022-10-18T07:24:38.155Z,6.07
2022-10-18T07:29:40.657Z,9.13
2022-10-18T07:34:42.481Z,7.20
2022-10-18T07:39:44.345Z,6.60
2022-10-18T07:44:46.252Z,4.93
2022-10-18T07:49:48.094Z,8.18
2022-10-18T07:59:57.286Z,7.50
2022-10-18T08:04:59.175Z,7.70
2022-10-18T08:10:01.039Z,9.05
2022-10-18T08:15:02.929Z,7.43
2022-10-18T08:20:12.065Z,10.45
2022-10-18T08:25:20.931Z,9.32
2022-10-18T08:30:23.817Z,6.63
2022-10-18T08:35:25.796Z,7.63
2022-10-18T08:40:28.462Z,4.93
2022-10-18T08:45:42.305Z,4.57
2022-10-18T08:50:45.625Z,4.20
2022-10-18T08:56:14.741Z,3.78
2022-10-18T09:01:25.347Z,2.80
2022-10-18T09:06:44.135Z,3.30
2022-10-18T09:12:32.606Z,2.17
2022-10-18T09:17:45.737Z,2.22
2022-10-18T09:23:20.607Z,2.25
2022-10-18T09:28:43.407Z,2.25
2022-10-18T09:34:03.061Z,2.10
2022-10-18T09:39:14.746Z,2.40
2022-10-18T09:44:22.343Z,2.50
2022-10-18T09:49:30.165Z,2.67
2022-10-18T09:54:38.028Z,2.35
2022-10-18T09:59:50.004Z,2.53
2022-10-18T10:04:54.422Z,2.30
2022-10-18T10:09:59.580Z,2.90
2022-10-18T10:15:20.019Z,2.05
2022-10-18T10:25:38.275Z,2.25
2022-10-18T10:30:40.293Z,2.42
2022-10-18T10:35:53.635Z,2.33
2022-10-18T10:40:57.154Z,2.08
2022-10-18T10:45:58.874Z,2.33
2022-10-18T10:51:10.355Z,1.80
2022-10-18T10:56:25.247Z,1.40
2022-10-18T11:01:33.736Z,1.35
2022-10-18T11:06:50.377Z,1.40
2022-10-18T11:12:15.824Z,1.17
2022-10-18T11:17:26.676Z,1.10
2022-10-18T11:22:34.999Z,1.20
2022-10-18T11:27:44.521Z,1.20
2022-10-18T11:33:13.166Z,1.17
2022-10-18T11:38:23.913Z,1.10
2022-10-18T11:44:01.000Z,1.40
2022-10-18T11:49:17.005Z,1.30
2022-10-18T11:54:28.242Z,1.15
2022-10-18T11:59:38.640Z,1.20
2022-10-18T12:05:11.882Z,1.20
2022-10-18T12:10:26.327Z,1.40
2022-10-18T12:15:41.041Z,1.40
2022-10-18T12:20:49.805Z,1.67
2022-10-18T12:25:57.699Z,1.55
2022-10-18T12:31:27.067Z,1.60
2022-10-18T12:37:06.006Z,1.50
2022-10-18T12:42:25.721Z,1.52
2022-10-18T12:47:30.485Z,1.70
2022-10-18T12:52:37.496Z,1.40
2022-10-18T12:57:54.467Z,1.33
2022-10-18T13:03:18.067Z,1.52
2022-10-18T13:08:32.664Z,1.50
2022-10-18T13:13:56.115Z,1.40
2022-10-18T13:19:16.400Z,1.48
2022-10-18T13:24:26.207Z,1.55
2022-10-18T13:29:33.786Z,1.40
2022-10-18T13:34:39.191Z,1.50
2022-10-18T13:39:41.301Z,1.50
2022-10-18T13:44:44.900Z,1.55
2022-10-18T13:50:03.196Z,1.70
2022-10-18T13:55:35.471Z,2.80
2022-10-18T14:01:05.155Z,1.75
2022-10-18T14:06:38.579Z,1.85
2022-10-18T14:11:48.245Z,1.90
2022-10-18T14:16:57.071Z,2.00
2022-10-18T14:22:10.812Z,2.08
2022-10-18T14:27:20.354Z,2.05
2022-10-18T14:32:32.130Z,2.40
2022-10-18T14:37:36.010Z,2.28
2022-10-18T14:42:37.892Z,2.60
2022-10-18T14:47:40.032Z,2.97
2022-10-18T14:52:41.950Z,3.10
2022-10-18T14:57:43.875Z,3.00
2022-10-18T15:02:46.071Z,3.13
2022-10-18T15:07:49.083Z,3.10
2022-10-18T15:13:09.364Z,3.45
2022-10-18T15:18:24.367Z,3.83
2022-10-18T15:23:31.430Z,3.30
2022-10-18T15:28:49.573Z,3.92
2022-10-18T15:33:52.654Z,4.13
2022-10-18T15:39:04.180Z,4.30
2022-10-18T15:44:22.339Z,4.68
2022-10-18T15:49:24.263Z,4.45
2022-10-18T15:54:32.446Z,4.57
2022-10-18T15:59:34.482Z,4.40
2022-10-18T16:04:37.090Z,4.47
2022-10-18T16:09:39.008Z,4.45
2022-10-18T16:14:40.817Z,5.20
2022-10-18T16:19:44.419Z,5.90
2022-10-18T16:24:46.248Z,5.45
2022-10-18T16:29:48.027Z,6.15
2022-10-18T16:34:49.797Z,5.70
2022-10-18T16:39:51.606Z,5.40
2022-10-18T16:44:55.141Z,5.88
2022-10-18T16:49:57.129Z,5.50
2022-10-18T16:54:59.016Z,6.00
2022-10-18T17:00:00.926Z,5.80
2022-10-18T17:05:02.832Z,6.30
2022-10-18T17:10:05.122Z,7.80
2022-10-18T17:15:09.181Z,8.77
2022-10-18T17:20:20.515Z,9.73
2022-10-18T17:25:22.614Z,9.02
2022-10-18T17:30:24.417Z,7.97
2022-10-18T17:35:26.222Z,10.40
2022-10-18T17:40:28.114Z,11.57
2022-10-18T17:45:30.032Z,9.32
2022-10-18T17:50:31.964Z,11.95
2022-10-18T17:55:36.599Z,10.77
2022-10-18T18:00:38.455Z,10.05
2022-10-18T18:05:40.335Z,10.68
2022-10-18T18:10:42.437Z,13.07
2022-10-18T18:15:44.316Z,13.90
2022-10-18T18:20:54.980Z,10.40
2022-10-18T18:25:58.196Z,11.02
2022-10-18T18:31:01.196Z,13.00
2022-10-18T18:36:05.004Z,13.10
2022-10-18T18:41:15.981Z,9.73
2022-10-18T18:46:18.288Z,10.85
2022-10-18T18:51:21.746Z,12.43
2022-10-18T18:56:25.450Z,18.33
2022-10-18T19:01:33.053Z,13.75
2022-10-18T19:06:43.298Z,11.15
2022-10-18T19:11:48.404Z,15.48
2022-10-18T19:16:54.925Z,11.82
2022-10-18T19:22:01.785Z,16.40
2022-10-18T19:27:08.844Z,14.13
2022-10-18T19:32:12.368Z,13.25
2022-10-18T19:37:15.357Z,23.60
2022-10-18T19:42:20.518Z,17.75
2022-10-18T19:47:27.956Z,24.02
2022-10-18T19:52:29.925Z,17.77
2022-10-18T19:57:32.508Z,17.75
2022-10-18T20:02:34.889Z,17.90
2022-10-18T20:07:36.932Z,26.63
2022-10-18T20:12:38.828Z,17.15
2022-10-18T20:17:40.666Z,19.40
2022-10-18T20:22:42.451Z,20.08
2022-10-18T20:27:44.468Z,22.92
2022-10-18T20:32:46.414Z,41.05
2022-10-18T20:37:48.598Z,24.95
2022-10-18T20:42:52.778Z,34.97
2022-10-18T20:47:55.784Z,21.52
2022-10-18T20:52:57.890Z,23.02
2022-10-18T20:57:59.678Z,21.85
2022-10-18T21:03:02.125Z,25.83
2022-10-18T21:08:04.236Z,21.13
2022-10-18T21:13:05.968Z,17.08
2022-10-18T21:18:07.856Z,18.80
2022-10-18T21:23:09.768Z,19.27
2022-10-18T21:28:11.548Z,17.25
2022-10-18T21:33:13.480Z,23.48
2022-10-18T21:38:15.210Z,21.95
2022-10-18T21:43:16.958Z,21.75
2022-10-18T21:48:18.969Z,20.45
2022-10-18T21:53:21.734Z,19.02
2022-10-18T21:58:23.535Z,21.83
2022-10-18T22:03:25.498Z,24.80
2022-10-18T22:08:27.587Z,16.77
2022-10-18T22:13:29.476Z,21.25
2022-10-18T22:18:32.667Z,15.70
2022-10-18T22:23:37.147Z,21.80
2022-10-18T22:28:40.780Z,21.10
2022-10-18T22:33:42.998Z,16.40
2022-10-18T22:38:44.736Z,18.60
2022-10-18T22:43:47.839Z,21.42
2022-10-18T22:48:49.747Z,19.40
2022-10-18T22:53:51.570Z,25.80
2022-10-18T22:58:53.552Z,24.88
2022-10-18T23:03:57.807Z,23.30
2022-10-18T23:09:01.838Z,21.98
2022-10-18T23:14:06.113Z,17.45
2022-10-18T23:19:07.853Z,28.65
2022-10-18T23:24:09.607Z,27.95
2022-10-18T23:29:11.459Z,33.35
2022-10-18T23:34:13.312Z,29.27
2022-10-18T23:39:15.074Z,28.25
2022-10-18T23:44:16.783Z,24.08
2022-10-18T23:49:18.533Z,27.58
2022-10-18T23:54:20.453Z,38.30
2022-10-18T23:59:22.399Z,39.42
